sensor_id;sensor_type;location;lat;lon;timestamp;P1;durP1;ratioP1;P2;durP2;ratioP2
5587;SDS011;2816;49.778;9.986;2023-04-03T00:01:25;2.40;;;2.20;;
5587;SDS011;2816;49.778;9.986;2023-04-03T00:03:53;3.37;;;2.20;;
5587;SDS011;2816;49.778;9.986;2023-04-03T00:06:22;3.20;;;2.30;;
5587;SDS011;2816;49.778;9.986;2023-04-03T00:08:49;3.43;;;2.43;;
5587;SDS011;2816;49.778;9.986;2023-04-03T00:11:17;2.90;;;2.30;;
5587;SDS011;2816;49.778;9.986;2023-04-03T00:13:44;2.27;;;2.07;;
5587;SDS011;2816;49.778;9.986;2023-04-03T00:16:11;2.90;;;2.00;;
5587;SDS011;2816;49.778;9.986;2023-04-03T00:18:39;5.03;;;3.13;;
5587;SDS011;2816;49.778;9.986;2023-04-03T00:21:07;2.53;;;2.20;;
5587;SDS011;2816;49.778;9.986;2023-04-03T00:23:37;4.13;;;2.73;;
5587;SDS011;2816;49.778;9.986;2023-04-03T00:26:04;5.50;;;3.00;;
5587;SDS011;2816;49.778;9.986;2023-04-03T00:28:31;6.53;;;2.40;;
5587;SDS011;2816;49.778;9.986;2023-04-03T00:30:58;2.77;;;2.50;;
5587;SDS011;2816;49.778;9.986;2023-04-03T00:33:25;2.70;;;2.40;;
5587;SDS011;2816;49.778;9.986;2023-04-03T00:35:52;2.53;;;2.33;;
5587;SDS011;2816;49.778;9.986;2023-04-03T00:38:19;3.13;;;2.53;;
5587;SDS011;2816;49.778;9.986;2023-04-03T00:40:48;4.83;;;2.33;;
5587;SDS011;2816;49.778;9.986;2023-04-03T00:43:16;3.57;;;2.40;;
5587;SDS011;2816;49.778;9.986;2023-04-03T00:45:46;4.93;;;2.33;;
5587;SDS011;2816;49.778;9.986;2023-04-03T00:48:15;3.90;;;2.50;;
5587;SDS011;2816;49.778;9.986;2023-04-03T00:50:46;2.70;;;2.50;;
5587;SDS011;2816;49.778;9.986;2023-04-03T00:53:14;3.50;;;2.30;;
5587;SDS011;2816;49.778;9.986;2023-04-03T00:55:49;3.10;;;2.63;;
5587;SDS011;2816;49.778;9.986;2023-04-03T00:58:19;4.03;;;2.90;;
5587;SDS011;2816;49.778;9.986;2023-04-03T01:00:50;5.20;;;3.10;;
5587;SDS011;2816;49.778;9.986;2023-04-03T01:03:23;6.60;;;3.37;;
5587;SDS011;2816;49.778;9.986;2023-04-03T01:05:50;6.50;;;3.33;;
5587;SDS011;2816;49.778;9.986;2023-04-03T01:08:17;6.27;;;3.00;;
5587;SDS011;2816;49.778;9.986;2023-04-03T01:10:44;3.00;;;2.63;;
5587;SDS011;2816;49.778;9.986;2023-04-03T01:13:20;5.30;;;3.00;;
5587;SDS011;2816;49.778;9.986;2023-04-03T01:15:49;3.70;;;2.43;;
5587;SDS011;2816;49.778;9.986;2023-04-03T01:18:16;3.67;;;2.70;;
5587;SDS011;2816;49.778;9.986;2023-04-03T01:23:52;4.03;;;3.23;;
5587;SDS011;2816;49.778;9.986;2023-04-03T01:26:37;7.70;;;2.97;;
5587;SDS011;2816;49.778;9.986;2023-04-03T01:29:06;3.30;;;2.50;;
5587;SDS011;2816;49.778;9.986;2023-04-03T01:31:49;3.07;;;2.60;;
5587;SDS011;2816;49.778;9.986;2023-04-03T01:34:17;3.83;;;2.53;;
5587;SDS011;2816;49.778;9.986;2023-04-03T01:36:44;6.00;;;3.00;;
5587;SDS011;2816;49.778;9.986;2023-04-03T01:39:11;8.80;;;3.87;;
5587;SDS011;2816;49.778;9.986;2023-04-03T01:41:38;6.27;;;2.70;;
5587;SDS011;2816;49.778;9.986;2023-04-03T01:44:05;2.57;;;2.23;;
5587;SDS011;2816;49.778;9.986;2023-04-03T01:46:32;3.50;;;2.50;;
5587;SDS011;2816;49.778;9.986;2023-04-03T01:49:01;5.97;;;3.47;;
5587;SDS011;2816;49.778;9.986;2023-04-03T01:51:28;4.23;;;3.23;;
5587;SDS011;2816;49.778;9.986;2023-04-03T01:53:55;5.43;;;3.17;;
5587;SDS011;2816;49.778;9.986;2023-04-03T01:56:22;6.50;;;3.03;;
5587;SDS011;2816;49.778;9.986;2023-04-03T01:58:50;8.13;;;2.73;;
5587;SDS011;2816;49.778;9.986;2023-04-03T02:01:17;6.17;;;3.03;;
5587;SDS011;2816;49.778;9.986;2023-04-03T02:03:44;2.33;;;2.07;;
5587;SDS011;2816;49.778;9.986;2023-04-03T02:06:12;4.70;;;2.37;;
5587;SDS011;2816;49.778;9.986;2023-04-03T02:08:39;4.40;;;2.60;;
5587;SDS011;2816;49.778;9.986;2023-04-03T02:11:06;3.03;;;2.37;;
5587;SDS011;2816;49.778;9.986;2023-04-03T02:13:33;3.13;;;2.27;;
5587;SDS011;2816;49.778;9.986;2023-04-03T02:16:05;4.43;;;2.30;;
5587;SDS011;2816;49.778;9.986;2023-04-03T02:18:33;3.90;;;2.80;;
5587;SDS011;2816;49.778;9.986;2023-04-03T02:21:00;5.83;;;2.43;;
5587;SDS011;2816;49.778;9.986;2023-04-03T02:23:28;3.00;;;2.20;;
5587;SDS011;2816;49.778;9.986;2023-04-03T02:26:02;4.00;;;2.50;;
5587;SDS011;2816;49.778;9.986;2023-04-03T02:28:32;3.43;;;2.00;;
5587;SDS011;2816;49.778;9.986;2023-04-03T02:31:00;2.50;;;2.00;;
5587;SDS011;2816;49.778;9.986;2023-04-03T02:33:27;6.13;;;3.10;;
5587;SDS011;2816;49.778;9.986;2023-04-03T02:35:54;4.83;;;2.37;;
5587;SDS011;2816;49.778;9.986;2023-04-03T02:38:21;3.70;;;2.70;;
5587;SDS011;2816;49.778;9.986;2023-04-03T02:40:50;7.10;;;3.10;;
5587;SDS011;2816;49.778;9.986;2023-04-03T02:43:17;2.53;;;2.33;;
5587;SDS011;2816;49.778;9.986;2023-04-03T02:45:44;4.23;;;2.53;;
5587;SDS011;2816;49.778;9.986;2023-04-03T02:48:11;5.13;;;2.63;;
5587;SDS011;2816;49.778;9.986;2023-04-03T02:50:39;4.03;;;2.57;;
5587;SDS011;2816;49.778;9.986;2023-04-03T02:53:07;3.50;;;2.57;;
5587;SDS011;2816;49.778;9.986;2023-04-03T02:55:34;3.80;;;2.57;;
5587;SDS011;2816;49.778;9.986;2023-04-03T02:58:02;3.20;;;2.50;;
5587;SDS011;2816;49.778;9.986;2023-04-03T03:00:29;9.17;;;3.17;;
5587;SDS011;2816;49.778;9.986;2023-04-03T03:02:56;2.60;;;2.27;;
5587;SDS011;2816;49.778;9.986;2023-04-03T03:05:23;4.43;;;2.53;;
5587;SDS011;2816;49.778;9.986;2023-04-03T03:07:50;3.80;;;2.83;;
5587;SDS011;2816;49.778;9.986;2023-04-03T03:10:17;3.87;;;2.20;;
5587;SDS011;2816;49.778;9.986;2023-04-03T03:12:44;5.43;;;2.63;;
5587;SDS011;2816;49.778;9.986;2023-04-03T03:15:13;4.10;;;2.77;;
5587;SDS011;2816;49.778;9.986;2023-04-03T03:17:40;5.87;;;2.90;;
5587;SDS011;2816;49.778;9.986;2023-04-03T03:20:07;6.63;;;2.50;;
5587;SDS011;2816;49.778;9.986;2023-04-03T03:22:35;3.60;;;2.40;;
5587;SDS011;2816;49.778;9.986;2023-04-03T03:25:02;2.30;;;2.10;;
5587;SDS011;2816;49.778;9.986;2023-04-03T03:27:30;4.17;;;2.30;;
5587;SDS011;2816;49.778;9.986;2023-04-03T03:29:56;5.23;;;2.70;;
5587;SDS011;2816;49.778;9.986;2023-04-03T03:32:25;3.80;;;2.70;;
5587;SDS011;2816;49.778;9.986;2023-04-03T03:34:52;3.73;;;2.77;;
5587;SDS011;2816;49.778;9.986;2023-04-03T03:37:19;2.93;;;2.40;;
5587;SDS011;2816;49.778;9.986;2023-04-03T03:39:45;3.47;;;2.43;;
5587;SDS011;2816;49.778;9.986;2023-04-03T03:42:12;3.43;;;2.80;;
5587;SDS011;2816;49.778;9.986;2023-04-03T03:44:39;3.47;;;2.90;;
5587;SDS011;2816;49.778;9.986;2023-04-03T03:47:06;5.57;;;2.93;;
5587;SDS011;2816;49.778;9.986;2023-04-03T03:49:37;2.77;;;2.50;;
5587;SDS011;2816;49.778;9.986;2023-04-03T03:52:04;3.20;;;2.40;;
5587;SDS011;2816;49.778;9.986;2023-04-03T03:54:30;4.57;;;2.30;;
5587;SDS011;2816;49.778;9.986;2023-04-03T03:56:57;4.27;;;2.50;;
5587;SDS011;2816;49.778;9.986;2023-04-03T03:59:24;3.90;;;2.60;;
5587;SDS011;2816;49.778;9.986;2023-04-03T04:01:51;5.20;;;2.97;;
5587;SDS011;2816;49.778;9.986;2023-04-03T04:04:18;3.97;;;2.97;;
5587;SDS011;2816;49.778;9.986;2023-04-03T04:06:46;6.47;;;2.97;;
5587;SDS011;2816;49.778;9.986;2023-04-03T04:09:13;4.93;;;3.20;;
5587;SDS011;2816;49.778;9.986;2023-04-03T04:11:40;4.70;;;3.00;;
5587;SDS011;2816;49.778;9.986;2023-04-03T04:14:07;2.60;;;2.40;;
5587;SDS011;2816;49.778;9.986;2023-04-03T04:16:35;8.30;;;3.37;;
5587;SDS011;2816;49.778;9.986;2023-04-03T04:19:02;4.40;;;2.83;;
5587;SDS011;2816;49.778;9.986;2023-04-03T04:21:29;4.77;;;3.10;;
5587;SDS011;2816;49.778;9.986;2023-04-03T04:23:57;4.07;;;2.90;;
5587;SDS011;2816;49.778;9.986;2023-04-03T04:26:24;7.40;;;2.87;;
5587;SDS011;2816;49.778;9.986;2023-04-03T04:28:51;4.10;;;3.13;;
5587;SDS011;2816;49.778;9.986;2023-04-03T04:31:18;4.60;;;2.70;;
5587;SDS011;2816;49.778;9.986;2023-04-03T04:33:45;4.97;;;2.90;;
5587;SDS011;2816;49.778;9.986;2023-04-03T04:36:12;3.57;;;2.90;;
5587;SDS011;2816;49.778;9.986;2023-04-03T04:38:39;6.57;;;3.37;;
5587;SDS011;2816;49.778;9.986;2023-04-03T04:41:08;2.93;;;2.63;;
5587;SDS011;2816;49.778;9.986;2023-04-03T04:43:35;5.77;;;2.77;;
5587;SDS011;2816;49.778;9.986;2023-04-03T04:46:02;11.27;;;3.20;;
5587;SDS011;2816;49.778;9.986;2023-04-03T04:48:30;3.40;;;2.60;;
5587;SDS011;2816;49.778;9.986;2023-04-03T04:50:57;5.13;;;2.87;;
5587;SDS011;2816;49.778;9.986;2023-04-03T04:53:24;6.27;;;3.10;;
5587;SDS011;2816;49.778;9.986;2023-04-03T04:55:51;7.30;;;3.10;;
5587;SDS011;2816;49.778;9.986;2023-04-03T04:58:19;6.00;;;2.90;;
5587;SDS011;2816;49.778;9.986;2023-04-03T05:00:46;5.07;;;2.93;;
5587;SDS011;2816;49.778;9.986;2023-04-03T05:03:13;5.10;;;3.13;;
5587;SDS011;2816;49.778;9.986;2023-04-03T05:05:40;7.83;;;2.80;;
5587;SDS011;2816;49.778;9.986;2023-04-03T05:08:07;6.60;;;3.47;;
5587;SDS011;2816;49.778;9.986;2023-04-03T05:10:34;5.40;;;3.00;;
5587;SDS011;2816;49.778;9.986;2023-04-03T05:13:01;6.83;;;2.40;;
5587;SDS011;2816;49.778;9.986;2023-04-03T05:15:29;4.70;;;2.47;;
5587;SDS011;2816;49.778;9.986;2023-04-03T05:17:56;5.53;;;2.67;;
5587;SDS011;2816;49.778;9.986;2023-04-03T05:20:23;6.77;;;2.83;;
5587;SDS011;2816;49.778;9.986;2023-04-03T05:22:50;4.43;;;2.60;;
5587;SDS011;2816;49.778;9.986;2023-04-03T05:25:17;6.93;;;3.00;;
5587;SDS011;2816;49.778;9.986;2023-04-03T05:27:44;4.03;;;2.87;;
5587;SDS011;2816;49.778;9.986;2023-04-03T05:30:11;5.77;;;2.90;;
5587;SDS011;2816;49.778;9.986;2023-04-03T05:32:40;3.93;;;2.83;;
5587;SDS011;2816;49.778;9.986;2023-04-03T05:35:07;5.07;;;3.10;;
5587;SDS011;2816;49.778;9.986;2023-04-03T05:37:35;8.03;;;3.07;;
5587;SDS011;2816;49.778;9.986;2023-04-03T05:40:02;4.80;;;2.70;;
5587;SDS011;2816;49.778;9.986;2023-04-03T05:42:30;3.50;;;2.57;;
5587;SDS011;2816;49.778;9.986;2023-04-03T05:44:57;4.93;;;2.67;;
5587;SDS011;2816;49.778;9.986;2023-04-03T05:47:24;7.67;;;3.30;;
5587;SDS011;2816;49.778;9.986;2023-04-03T05:49:53;7.20;;;3.07;;
5587;SDS011;2816;49.778;9.986;2023-04-03T05:52:20;5.33;;;3.00;;
5587;SDS011;2816;49.778;9.986;2023-04-03T05:54:49;6.00;;;3.37;;
5587;SDS011;2816;49.778;9.986;2023-04-03T05:57:16;4.73;;;2.67;;
5587;SDS011;2816;49.778;9.986;2023-04-03T05:59:43;3.63;;;2.90;;
5587;SDS011;2816;49.778;9.986;2023-04-03T06:02:11;2.73;;;2.40;;
5587;SDS011;2816;49.778;9.986;2023-04-03T06:04:39;3.23;;;2.90;;
5587;SDS011;2816;49.778;9.986;2023-04-03T06:07:08;5.17;;;3.30;;
5587;SDS011;2816;49.778;9.986;2023-04-03T06:09:37;6.80;;;2.80;;
5587;SDS011;2816;49.778;9.986;2023-04-03T06:12:04;4.53;;;2.50;;
5587;SDS011;2816;49.778;9.986;2023-04-03T06:14:31;7.87;;;3.17;;
5587;SDS011;2816;49.778;9.986;2023-04-03T06:16:58;5.00;;;3.03;;
5587;SDS011;2816;49.778;9.986;2023-04-03T06:19:26;5.90;;;2.77;;
5587;SDS011;2816;49.778;9.986;2023-04-03T06:21:53;5.90;;;3.10;;
5587;SDS011;2816;49.778;9.986;2023-04-03T06:24:22;8.50;;;3.30;;
5587;SDS011;2816;49.778;9.986;2023-04-03T06:26:50;7.23;;;3.30;;
5587;SDS011;2816;49.778;9.986;2023-04-03T06:29:18;6.13;;;3.23;;
5587;SDS011;2816;49.778;9.986;2023-04-03T06:31:45;4.23;;;3.33;;
5587;SDS011;2816;49.778;9.986;2023-04-03T06:34:12;3.17;;;2.60;;
5587;SDS011;2816;49.778;9.986;2023-04-03T06:36:40;6.20;;;3.57;;
5587;SDS011;2816;49.778;9.986;2023-04-03T06:39:08;5.20;;;3.10;;
5587;SDS011;2816;49.778;9.986;2023-04-03T06:41:39;6.70;;;2.57;;
5587;SDS011;2816;49.778;9.986;2023-04-03T06:44:06;7.30;;;2.80;;
5587;SDS011;2816;49.778;9.986;2023-04-03T06:46:36;4.97;;;2.60;;
5587;SDS011;2816;49.778;9.986;2023-04-03T06:49:03;8.60;;;3.17;;
5587;SDS011;2816;49.778;9.986;2023-04-03T06:51:32;5.70;;;2.57;;
5587;SDS011;2816;49.778;9.986;2023-04-03T06:54:00;5.70;;;3.17;;
5587;SDS011;2816;49.778;9.986;2023-04-03T06:56:28;6.67;;;2.80;;
5587;SDS011;2816;49.778;9.986;2023-04-03T06:58:57;4.40;;;2.87;;
5587;SDS011;2816;49.778;9.986;2023-04-03T07:01:24;7.03;;;3.03;;
5587;SDS011;2816;49.778;9.986;2023-04-03T07:03:52;4.13;;;2.77;;
5587;SDS011;2816;49.778;9.986;2023-04-03T07:06:20;3.73;;;2.63;;
5587;SDS011;2816;49.778;9.986;2023-04-03T07:08:47;4.13;;;2.73;;
5587;SDS011;2816;49.778;9.986;2023-04-03T07:11:14;5.60;;;2.60;;
5587;SDS011;2816;49.778;9.986;2023-04-03T07:13:42;3.60;;;2.37;;
5587;SDS011;2816;49.778;9.986;2023-04-03T07:16:10;5.97;;;2.70;;
5587;SDS011;2816;49.778;9.986;2023-04-03T07:18:37;3.20;;;2.17;;
5587;SDS011;2816;49.778;9.986;2023-04-03T07:21:04;4.80;;;2.57;;
5587;SDS011;2816;49.778;9.986;2023-04-03T07:23:31;4.07;;;2.60;;
5587;SDS011;2816;49.778;9.986;2023-04-03T07:25:58;7.80;;;2.80;;
5587;SDS011;2816;49.778;9.986;2023-04-03T07:28:26;3.73;;;2.50;;
5587;SDS011;2816;49.778;9.986;2023-04-03T07:30:54;3.83;;;2.40;;
5587;SDS011;2816;49.778;9.986;2023-04-03T07:33:28;7.60;;;3.13;;
5587;SDS011;2816;49.778;9.986;2023-04-03T07:35:56;6.73;;;2.83;;
5587;SDS011;2816;49.778;9.986;2023-04-03T07:38:23;6.97;;;3.37;;
5587;SDS011;2816;49.778;9.986;2023-04-03T07:40:50;5.43;;;2.57;;
5587;SDS011;2816;49.778;9.986;2023-04-03T07:43:19;7.93;;;2.90;;
5587;SDS011;2816;49.778;9.986;2023-04-03T07:45:47;2.90;;;2.40;;
5587;SDS011;2816;49.778;9.986;2023-04-03T07:48:16;6.40;;;3.00;;
5587;SDS011;2816;49.778;9.986;2023-04-03T07:50:45;5.50;;;2.67;;
5587;SDS011;2816;49.778;9.986;2023-04-03T07:53:12;5.60;;;2.70;;
5587;SDS011;2816;49.778;9.986;2023-04-03T07:55:39;3.87;;;2.33;;
5587;SDS011;2816;49.778;9.986;2023-04-03T07:58:09;3.33;;;2.30;;
5587;SDS011;2816;49.778;9.986;2023-04-03T08:00:38;4.10;;;2.57;;
5587;SDS011;2816;49.778;9.986;2023-04-03T08:03:05;6.63;;;2.73;;
5587;SDS011;2816;49.778;9.986;2023-04-03T08:05:35;7.33;;;2.70;;
5587;SDS011;2816;49.778;9.986;2023-04-03T08:08:05;2.97;;;2.17;;
5587;SDS011;2816;49.778;9.986;2023-04-03T08:10:33;2.70;;;2.50;;
5587;SDS011;2816;49.778;9.986;2023-04-03T08:13:01;7.47;;;2.80;;
5587;SDS011;2816;49.778;9.986;2023-04-03T08:15:29;4.90;;;2.83;;
5587;SDS011;2816;49.778;9.986;2023-04-03T08:17:57;5.23;;;2.53;;
5587;SDS011;2816;49.778;9.986;2023-04-03T08:20:24;6.20;;;2.40;;
5587;SDS011;2816;49.778;9.986;2023-04-03T08:22:51;7.83;;;2.73;;
5587;SDS011;2816;49.778;9.986;2023-04-03T08:25:20;3.73;;;2.23;;
5587;SDS011;2816;49.778;9.986;2023-04-03T08:27:47;6.03;;;2.47;;
5587;SDS011;2816;49.778;9.986;2023-04-03T08:30:14;3.50;;;2.33;;
5587;SDS011;2816;49.778;9.986;2023-04-03T08:32:41;5.60;;;2.30;;
5587;SDS011;2816;49.778;9.986;2023-04-03T08:35:09;2.00;;;1.77;;
5587;SDS011;2816;49.778;9.986;2023-04-03T08:37:36;4.80;;;2.57;;
5587;SDS011;2816;49.778;9.986;2023-04-03T08:40:04;4.97;;;2.50;;
5587;SDS011;2816;49.778;9.986;2023-04-03T08:42:40;4.30;;;2.40;;
5587;SDS011;2816;49.778;9.986;2023-04-03T08:45:14;4.93;;;2.40;;
5587;SDS011;2816;49.778;9.986;2023-04-03T08:47:45;5.23;;;3.43;;
5587;SDS011;2816;49.778;9.986;2023-04-03T08:50:16;3.00;;;2.20;;
5587;SDS011;2816;49.778;9.986;2023-04-03T08:52:46;3.97;;;2.20;;
5587;SDS011;2816;49.778;9.986;2023-04-03T08:55:19;5.80;;;2.30;;
5587;SDS011;2816;49.778;9.986;2023-04-03T08:57:53;3.63;;;2.23;;
5587;SDS011;2816;49.778;9.986;2023-04-03T09:00:26;3.43;;;2.13;;
5587;SDS011;2816;49.778;9.986;2023-04-03T09:02:56;4.63;;;2.20;;
5587;SDS011;2816;49.778;9.986;2023-04-03T09:05:32;7.87;;;2.33;;
5587;SDS011;2816;49.778;9.986;2023-04-03T09:08:11;3.37;;;2.33;;
5587;SDS011;2816;49.778;9.986;2023-04-03T09:10:43;5.87;;;1.97;;
5587;SDS011;2816;49.778;9.986;2023-04-03T09:13:13;3.77;;;2.23;;
5587;SDS011;2816;49.778;9.986;2023-04-03T09:15:51;8.70;;;2.97;;
5587;SDS011;2816;49.778;9.986;2023-04-03T09:18:20;5.13;;;2.50;;
5587;SDS011;2816;49.778;9.986;2023-04-03T09:20:53;3.53;;;2.20;;
5587;SDS011;2816;49.778;9.986;2023-04-03T09:23:26;9.10;;;2.50;;
5587;SDS011;2816;49.778;9.986;2023-04-03T09:25:58;4.77;;;2.20;;
5587;SDS011;2816;49.778;9.986;2023-04-03T09:28:32;3.03;;;2.50;;
5587;SDS011;2816;49.778;9.986;2023-04-03T09:31:05;2.77;;;2.00;;
5587;SDS011;2816;49.778;9.986;2023-04-03T09:33:43;5.23;;;2.57;;
5587;SDS011;2816;49.778;9.986;2023-04-03T09:36:11;9.60;;;2.27;;
5587;SDS011;2816;49.778;9.986;2023-04-03T09:38:38;3.50;;;1.93;;
5587;SDS011;2816;49.778;9.986;2023-04-03T09:41:07;2.40;;;1.87;;
5587;SDS011;2816;49.778;9.986;2023-04-03T09:43:41;4.20;;;2.20;;
5587;SDS011;2816;49.778;9.986;2023-04-03T09:46:24;2.70;;;1.97;;
5587;SDS011;2816;49.778;9.986;2023-04-03T09:48:55;9.43;;;2.57;;
5587;SDS011;2816;49.778;9.986;2023-04-03T09:51:25;6.27;;;2.57;;
5587;SDS011;2816;49.778;9.986;2023-04-03T09:53:53;1.67;;;1.57;;
5587;SDS011;2816;49.778;9.986;2023-04-03T09:56:22;3.47;;;1.87;;
5587;SDS011;2816;49.778;9.986;2023-04-03T09:58:53;3.80;;;1.90;;
5587;SDS011;2816;49.778;9.986;2023-04-03T10:01:35;5.07;;;1.87;;
5587;SDS011;2816;49.778;9.986;2023-04-03T10:04:05;3.30;;;2.00;;
5587;SDS011;2816;49.778;9.986;2023-04-03T10:06:35;3.13;;;2.00;;
5587;SDS011;2816;49.778;9.986;2023-04-03T10:09:06;2.60;;;2.00;;
5587;SDS011;2816;49.778;9.986;2023-04-03T10:11:47;4.00;;;2.13;;
5587;SDS011;2816;49.778;9.986;2023-04-03T10:14:26;5.77;;;2.00;;
5587;SDS011;2816;49.778;9.986;2023-04-03T10:16:55;3.37;;;1.80;;
5587;SDS011;2816;49.778;9.986;2023-04-03T10:19:33;3.87;;;1.63;;
5587;SDS011;2816;49.778;9.986;2023-04-03T10:22:03;3.13;;;1.70;;
5587;SDS011;2816;49.778;9.986;2023-04-03T10:24:53;4.77;;;1.73;;
5587;SDS011;2816;49.778;9.986;2023-04-03T10:27:31;5.30;;;2.10;;
5587;SDS011;2816;49.778;9.986;2023-04-03T10:30:11;12.70;;;1.80;;
5587;SDS011;2816;49.778;9.986;2023-04-03T10:32:51;6.40;;;1.80;;
5587;SDS011;2816;49.778;9.986;2023-04-03T10:35:31;3.40;;;1.73;;
5587;SDS011;2816;49.778;9.986;2023-04-03T10:38:08;2.73;;;1.70;;
5587;SDS011;2816;49.778;9.986;2023-04-03T10:40:44;5.13;;;1.73;;
5587;SDS011;2816;49.778;9.986;2023-04-03T10:43:21;3.80;;;1.80;;
5587;SDS011;2816;49.778;9.986;2023-04-03T10:45:59;4.67;;;1.70;;
5587;SDS011;2816;49.778;9.986;2023-04-03T10:48:33;3.53;;;1.87;;
5587;SDS011;2816;49.778;9.986;2023-04-03T10:51:13;3.93;;;2.23;;
5587;SDS011;2816;49.778;9.986;2023-04-03T10:53:51;2.70;;;1.97;;
5587;SDS011;2816;49.778;9.986;2023-04-03T10:56:25;4.40;;;1.77;;
5587;SDS011;2816;49.778;9.986;2023-04-03T10:58:57;5.83;;;1.80;;
5587;SDS011;2816;49.778;9.986;2023-04-03T11:01:30;4.73;;;1.63;;
5587;SDS011;2816;49.778;9.986;2023-04-03T11:04:00;2.63;;;1.80;;
5587;SDS011;2816;49.778;9.986;2023-04-03T11:06:31;2.07;;;1.90;;
5587;SDS011;2816;49.778;9.986;2023-04-03T11:09:05;2.00;;;1.80;;
5587;SDS011;2816;49.778;9.986;2023-04-03T11:11:38;3.47;;;1.93;;
5587;SDS011;2816;49.778;9.986;2023-04-03T11:14:09;2.50;;;1.67;;
5587;SDS011;2816;49.778;9.986;2023-04-03T11:16:43;1.90;;;1.53;;
5587;SDS011;2816;49.778;9.986;2023-04-03T11:19:15;4.33;;;1.73;;
5587;SDS011;2816;49.778;9.986;2023-04-03T11:21:50;4.67;;;1.93;;
5587;SDS011;2816;49.778;9.986;2023-04-03T11:24:22;3.33;;;1.80;;
5587;SDS011;2816;49.778;9.986;2023-04-03T11:26:51;5.63;;;2.20;;
5587;SDS011;2816;49.778;9.986;2023-04-03T11:29:22;3.20;;;2.00;;
5587;SDS011;2816;49.778;9.986;2023-04-03T11:32:01;7.37;;;2.23;;
5587;SDS011;2816;49.778;9.986;2023-04-03T11:34:39;2.00;;;1.60;;
5587;SDS011;2816;49.778;9.986;2023-04-03T11:37:12;5.03;;;2.47;;
5587;SDS011;2816;49.778;9.986;2023-04-03T11:39:47;5.00;;;2.30;;
5587;SDS011;2816;49.778;9.986;2023-04-03T11:42:24;2.13;;;1.70;;
5587;SDS011;2816;49.778;9.986;2023-04-03T11:45:16;1.77;;;1.67;;
5587;SDS011;2816;49.778;9.986;2023-04-03T11:48:01;3.23;;;1.90;;
5587;SDS011;2816;49.778;9.986;2023-04-03T11:50:42;4.00;;;1.70;;
5587;SDS011;2816;49.778;9.986;2023-04-03T11:53:31;4.17;;;1.60;;
5587;SDS011;2816;49.778;9.986;2023-04-03T11:56:03;1.57;;;1.37;;
5587;SDS011;2816;49.778;9.986;2023-04-03T12:01:49;2.60;;;1.70;;
5587;SDS011;2816;49.778;9.986;2023-04-03T12:04:18;2.20;;;1.40;;
5587;SDS011;2816;49.778;9.986;2023-04-03T12:06:51;4.13;;;1.40;;
5587;SDS011;2816;49.778;9.986;2023-04-03T12:12:41;3.33;;;1.63;;
5587;SDS011;2816;49.778;9.986;2023-04-03T12:15:25;4.00;;;1.50;;
5587;SDS011;2816;49.778;9.986;2023-04-03T12:24:27;1.67;;;1.50;;
5587;SDS011;2816;49.778;9.986;2023-04-03T12:29:47;4.40;;;1.70;;
5587;SDS011;2816;49.778;9.986;2023-04-03T12:32:23;10.03;;;1.73;;
5587;SDS011;2816;49.778;9.986;2023-04-03T12:35:04;1.50;;;1.40;;
5587;SDS011;2816;49.778;9.986;2023-04-03T12:37:43;2.60;;;1.80;;
5587;SDS011;2816;49.778;9.986;2023-04-03T12:40:29;3.93;;;1.80;;
5587;SDS011;2816;49.778;9.986;2023-04-03T12:43:13;2.17;;;1.70;;
5587;SDS011;2816;49.778;9.986;2023-04-03T12:45:51;1.40;;;1.30;;
5587;SDS011;2816;49.778;9.986;2023-04-03T12:48:26;1.50;;;1.40;;
5587;SDS011;2816;49.778;9.986;2023-04-03T12:50:55;1.90;;;1.50;;
5587;SDS011;2816;49.778;9.986;2023-04-03T12:53:24;3.67;;;1.20;;
5587;SDS011;2816;49.778;9.986;2023-04-03T12:55:57;1.67;;;1.23;;
5587;SDS011;2816;49.778;9.986;2023-04-03T12:58:44;4.37;;;1.60;;
5587;SDS011;2816;49.778;9.986;2023-04-03T13:01:11;1.60;;;1.50;;
5587;SDS011;2816;49.778;9.986;2023-04-03T13:03:42;1.50;;;1.27;;
5587;SDS011;2816;49.778;9.986;2023-04-03T13:06:14;1.83;;;1.47;;
5587;SDS011;2816;49.778;9.986;2023-04-03T13:08:48;2.40;;;1.53;;
5587;SDS011;2816;49.778;9.986;2023-04-03T13:11:17;2.90;;;1.47;;
5587;SDS011;2816;49.778;9.986;2023-04-03T13:13:56;3.80;;;1.20;;
5587;SDS011;2816;49.778;9.986;2023-04-03T13:16:24;3.40;;;1.87;;
5587;SDS011;2816;49.778;9.986;2023-04-03T13:18:51;1.50;;;1.30;;
5587;SDS011;2816;49.778;9.986;2023-04-03T13:21:20;1.67;;;1.43;;
5587;SDS011;2816;49.778;9.986;2023-04-03T13:23:51;4.17;;;1.83;;
5587;SDS011;2816;49.778;9.986;2023-04-03T13:26:22;4.53;;;1.60;;
5587;SDS011;2816;49.778;9.986;2023-04-03T13:28:53;3.00;;;1.57;;
5587;SDS011;2816;49.778;9.986;2023-04-03T13:31:25;1.93;;;1.57;;
5587;SDS011;2816;49.778;9.986;2023-04-03T13:33:55;1.57;;;1.43;;
5587;SDS011;2816;49.778;9.986;2023-04-03T13:36:24;1.60;;;1.20;;
5587;SDS011;2816;49.778;9.986;2023-04-03T13:38:59;3.80;;;1.97;;
5587;SDS011;2816;49.778;9.986;2023-04-03T13:41:30;2.90;;;1.70;;
5587;SDS011;2816;49.778;9.986;2023-04-03T13:44:14;2.47;;;1.40;;
5587;SDS011;2816;49.778;9.986;2023-04-03T13:46:42;5.20;;;1.80;;
5587;SDS011;2816;49.778;9.986;2023-04-03T13:49:17;3.07;;;1.40;;
5587;SDS011;2816;49.778;9.986;2023-04-03T13:51:45;4.53;;;1.60;;
5587;SDS011;2816;49.778;9.986;2023-04-03T13:54:17;1.70;;;1.50;;
5587;SDS011;2816;49.778;9.986;2023-04-03T13:56:52;1.83;;;1.27;;
5587;SDS011;2816;49.778;9.986;2023-04-03T13:59:22;2.37;;;1.50;;
5587;SDS011;2816;49.778;9.986;2023-04-03T14:01:53;2.60;;;1.80;;
5587;SDS011;2816;49.778;9.986;2023-04-03T14:04:32;1.80;;;1.40;;
5587;SDS011;2816;49.778;9.986;2023-04-03T14:07:10;3.93;;;1.30;;
5587;SDS011;2816;49.778;9.986;2023-04-03T14:09:38;1.90;;;1.30;;
5587;SDS011;2816;49.778;9.986;2023-04-03T14:12:07;2.47;;;1.50;;
5587;SDS011;2816;49.778;9.986;2023-04-03T14:14:38;6.03;;;1.60;;
5587;SDS011;2816;49.778;9.986;2023-04-03T14:17:10;3.73;;;1.57;;
5587;SDS011;2816;49.778;9.986;2023-04-03T14:19:41;1.40;;;1.30;;
5587;SDS011;2816;49.778;9.986;2023-04-03T14:22:13;1.87;;;1.30;;
5587;SDS011;2816;49.778;9.986;2023-04-03T14:24:41;2.67;;;1.53;;
5587;SDS011;2816;49.778;9.986;2023-04-03T14:27:13;2.43;;;1.50;;
5587;SDS011;2816;49.778;9.986;2023-04-03T14:29:44;2.70;;;1.50;;
5587;SDS011;2816;49.778;9.986;2023-04-03T14:32:12;1.40;;;1.30;;
5587;SDS011;2816;49.778;9.986;2023-04-03T14:34:39;3.30;;;1.83;;
5587;SDS011;2816;49.778;9.986;2023-04-03T14:37:09;2.40;;;1.47;;
5587;SDS011;2816;49.778;9.986;2023-04-03T14:39:37;4.80;;;1.70;;
5587;SDS011;2816;49.778;9.986;2023-04-03T14:42:05;1.93;;;1.50;;
5587;SDS011;2816;49.778;9.986;2023-04-03T14:44:39;2.50;;;1.67;;
5587;SDS011;2816;49.778;9.986;2023-04-03T14:47:08;1.73;;;1.63;;
5587;SDS011;2816;49.778;9.986;2023-04-03T14:49:36;3.30;;;1.57;;
5587;SDS011;2816;49.778;9.986;2023-04-03T14:52:03;1.60;;;1.50;;
5587;SDS011;2816;49.778;9.986;2023-04-03T14:54:31;2.60;;;1.57;;
5587;SDS011;2816;49.778;9.986;2023-04-03T14:56:58;2.63;;;1.67;;
5587;SDS011;2816;49.778;9.986;2023-04-03T14:59:26;3.83;;;1.50;;
5587;SDS011;2816;49.778;9.986;2023-04-03T15:01:56;1.50;;;1.20;;
5587;SDS011;2816;49.778;9.986;2023-04-03T15:04:23;2.47;;;1.63;;
5587;SDS011;2816;49.778;9.986;2023-04-03T15:06:50;2.87;;;1.70;;
5587;SDS011;2816;49.778;9.986;2023-04-03T15:09:19;2.33;;;1.60;;
5587;SDS011;2816;49.778;9.986;2023-04-03T15:11:47;2.37;;;1.43;;
5587;SDS011;2816;49.778;9.986;2023-04-03T15:14:15;5.47;;;1.57;;
5587;SDS011;2816;49.778;9.986;2023-04-03T15:16:42;8.53;;;1.57;;
5587;SDS011;2816;49.778;9.986;2023-04-03T15:19:11;2.20;;;1.67;;
5587;SDS011;2816;49.778;9.986;2023-04-03T15:21:38;4.30;;;1.70;;
5587;SDS011;2816;49.778;9.986;2023-04-03T15:24:06;3.47;;;1.47;;
5587;SDS011;2816;49.778;9.986;2023-04-03T15:26:35;3.23;;;1.40;;
5587;SDS011;2816;49.778;9.986;2023-04-03T15:29:02;2.67;;;1.37;;
5587;SDS011;2816;49.778;9.986;2023-04-03T15:31:31;11.73;;;1.80;;
5587;SDS011;2816;49.778;9.986;2023-04-03T15:33:58;1.73;;;1.50;;
5587;SDS011;2816;49.778;9.986;2023-04-03T15:36:27;9.80;;;2.17;;
5587;SDS011;2816;49.778;9.986;2023-04-03T15:38:54;2.13;;;1.40;;
5587;SDS011;2816;49.778;9.986;2023-04-03T15:41:21;2.57;;;1.40;;
5587;SDS011;2816;49.778;9.986;2023-04-03T15:43:48;3.20;;;1.50;;
5587;SDS011;2816;49.778;9.986;2023-04-03T15:46:14;3.13;;;2.00;;
5587;SDS011;2816;49.778;9.986;2023-04-03T15:48:41;2.73;;;1.30;;
5587;SDS011;2816;49.778;9.986;2023-04-03T15:51:09;4.43;;;1.73;;